sensor_id;sensor_type;location;lat;lon;timestamp;temperature;humidity
71304;DHT22;59091;47.446;19.148;2023-05-28T00:00:32;18.22;48.23
71304;DHT22;59091;47.446;19.148;2023-05-28T00:02:58;18.08;48.30
71304;DHT22;59091;47.446;19.148;2023-05-28T00:05:24;18.05;48.74
71304;DHT22;59091;47.446;19.148;2023-05-28T00:07:50;17.87;48.61
71304;DHT22;59091;47.446;19.148;2023-05-28T00:10:15;17.88;48.90
71304;DHT22;59091;47.446;19.148;2023-05-28T00:12:41;18.02;48.77
71304;DHT22;59091;47.446;19.148;2023-05-28T00:15:07;17.88;48.22
71304;DHT22;59091;47.446;19.148;2023-05-28T00:17:32;17.90;47.96
71304;DHT22;59091;47.446;19.148;2023-05-28T00:19:58;17.83;48.04
71304;DHT22;59091;47.446;19.148;2023-05-28T00:22:23;17.76;47.60
71304;DHT22;59091;47.446;19.148;2023-05-28T00:24:49;17.84;47.83
71304;DHT22;59091;47.446;19.148;2023-05-28T00:27:14;17.74;47.43
71304;DHT22;59091;47.446;19.148;2023-05-28T00:29:40;17.78;47.16
71304;DHT22;59091;47.446;19.148;2023-05-28T00:32:05;17.70;47.26
71304;DHT22;59091;47.446;19.148;2023-05-28T00:34:31;17.64;47.27
71304;DHT22;59091;47.446;19.148;2023-05-28T00:36:56;17.70;47.09
71304;DHT22;59091;47.446;19.148;2023-05-28T00:39:22;17.74;47.84
71304;DHT22;59091;47.446;19.148;2023-05-28T00:41:47;17.74;47.15
71304;DHT22;59091;47.446;19.148;2023-05-28T00:44:13;17.63;47.14
71304;DHT22;59091;47.446;19.148;2023-05-28T00:46:44;17.56;46.84
71304;DHT22;59091;47.446;19.148;2023-05-28T00:49:11;17.60;47.00
71304;DHT22;59091;47.446;19.148;2023-05-28T00:51:38;17.60;46.79
71304;DHT22;59091;47.446;19.148;2023-05-28T00:54:04;17.49;46.50
71304;DHT22;59091;47.446;19.148;2023-05-28T00:56:30;17.56;46.28
71304;DHT22;59091;47.446;19.148;2023-05-28T00:58:57;17.43;46.14
71304;DHT22;59091;47.446;19.148;2023-05-28T01:01:25;17.42;46.13
71304;DHT22;59091;47.446;19.148;2023-05-28T01:03:51;17.43;46.83
71304;DHT22;59091;47.446;19.148;2023-05-28T01:06:17;17.37;46.19
71304;DHT22;59091;47.446;19.148;2023-05-28T01:08:46;17.43;46.44
71304;DHT22;59091;47.446;19.148;2023-05-28T01:11:15;17.35;45.80
71304;DHT22;59091;47.446;19.148;2023-05-28T01:13:41;17.32;45.89
71304;DHT22;59091;47.446;19.148;2023-05-28T01:16:06;17.27;46.16
71304;DHT22;59091;47.446;19.148;2023-05-28T01:18:32;17.18;46.56
71304;DHT22;59091;47.446;19.148;2023-05-28T01:21:01;17.15;46.77
71304;DHT22;59091;47.446;19.148;2023-05-28T01:23:28;17.19;46.67
71304;DHT22;59091;47.446;19.148;2023-05-28T01:25:54;17.15;46.68
71304;DHT22;59091;47.446;19.148;2023-05-28T01:28:24;17.04;47.08
71304;DHT22;59091;47.446;19.148;2023-05-28T01:30:50;17.09;47.45
71304;DHT22;59091;47.446;19.148;2023-05-28T01:33:15;16.99;47.67
71304;DHT22;59091;47.446;19.148;2023-05-28T01:35:42;16.91;47.85
71304;DHT22;59091;47.446;19.148;2023-05-28T01:38:10;16.98;47.76
71304;DHT22;59091;47.446;19.148;2023-05-28T01:40:39;16.98;48.07
71304;DHT22;59091;47.446;19.148;2023-05-28T01:43:05;16.96;47.89
71304;DHT22;59091;47.446;19.148;2023-05-28T01:45:31;16.89;47.98
71304;DHT22;59091;47.446;19.148;2023-05-28T01:47:57;16.98;48.49
71304;DHT22;59091;47.446;19.148;2023-05-28T01:50:23;16.92;48.17
71304;DHT22;59091;47.446;19.148;2023-05-28T01:52:49;16.98;48.01
71304;DHT22;59091;47.446;19.148;2023-05-28T01:55:14;16.89;48.50
71304;DHT22;59091;47.446;19.148;2023-05-28T01:57:40;16.88;48.46
71304;DHT22;59091;47.446;19.148;2023-05-28T02:00:06;16.76;48.49
71304;DHT22;59091;47.446;19.148;2023-05-28T02:02:32;16.64;48.91
71304;DHT22;59091;47.446;19.148;2023-05-28T02:04:59;16.67;49.15
71304;DHT22;59091;47.446;19.148;2023-05-28T02:07:25;16.76;49.55
71304;DHT22;59091;47.446;19.148;2023-05-28T02:09:50;16.79;49.61
71304;DHT22;59091;47.446;19.148;2023-05-28T02:12:16;16.79;49.34
71304;DHT22;59091;47.446;19.148;2023-05-28T02:14:42;16.69;49.43
71304;DHT22;59091;47.446;19.148;2023-05-28T02:17:08;16.69;49.91
71304;DHT22;59091;47.446;19.148;2023-05-28T02:19:35;16.71;49.70
71304;DHT22;59091;47.446;19.148;2023-05-28T02:22:01;16.74;49.78
71304;DHT22;59091;47.446;19.148;2023-05-28T02:24:26;16.67;49.54
71304;DHT22;59091;47.446;19.148;2023-05-28T02:26:52;16.63;49.41
71304;DHT22;59091;47.446;19.148;2023-05-28T02:29:17;16.57;49.56
71304;DHT22;59091;47.446;19.148;2023-05-28T02:31:43;16.53;49.81
71304;DHT22;59091;47.446;19.148;2023-05-28T02:34:08;16.38;49.81
71304;DHT22;59091;47.446;19.148;2023-05-28T02:36:34;16.38;49.91
71304;DHT22;59091;47.446;19.148;2023-05-28T02:39:01;16.43;49.82
71304;DHT22;59091;47.446;19.148;2023-05-28T02:41:27;16.50;51.11
71304;DHT22;59091;47.446;19.148;2023-05-28T02:43:53;16.51;50.28
71304;DHT22;59091;47.446;19.148;2023-05-28T02:46:18;16.34;50.25
71304;DHT22;59091;47.446;19.148;2023-05-28T02:48:44;16.30;50.64
71304;DHT22;59091;47.446;19.148;2023-05-28T02:51:10;16.38;50.35
71304;DHT22;59091;47.446;19.148;2023-05-28T02:53:36;16.16;51.07
71304;DHT22;59091;47.446;19.148;2023-05-28T02:56:02;16.21;51.23
71304;DHT22;59091;47.446;19.148;2023-05-28T02:58:27;16.20;50.99
71304;DHT22;59091;47.446;19.148;2023-05-28T03:00:57;16.25;51.33
71304;DHT22;59091;47.446;19.148;2023-05-28T03:03:22;16.25;51.46
71304;DHT22;59091;47.446;19.148;2023-05-28T03:05:48;16.20;51.56
71304;DHT22;59091;47.446;19.148;2023-05-28T03:08:14;16.21;51.30
71304;DHT22;59091;47.446;19.148;2023-05-28T03:10:40;16.24;52.15
71304;DHT22;59091;47.446;19.148;2023-05-28T03:13:05;16.20;51.50
71304;DHT22;59091;47.446;19.148;2023-05-28T03:15:31;16.21;51.52
71304;DHT22;59091;47.446;19.148;2023-05-28T03:17:56;16.33;52.04
71304;DHT22;59091;47.446;19.148;2023-05-28T03:20:22;16.30;51.49
71304;DHT22;59091;47.446;19.148;2023-05-28T03:22:48;16.30;51.52
71304;DHT22;59091;47.446;19.148;2023-05-28T03:25:14;16.34;52.01
71304;DHT22;59091;47.446;19.148;2023-05-28T03:27:39;16.38;52.25
71304;DHT22;59091;47.446;19.148;2023-05-28T03:30:05;16.35;51.75
71304;DHT22;59091;47.446;19.148;2023-05-28T03:32:33;16.45;51.55
71304;DHT22;59091;47.446;19.148;2023-05-28T03:34:58;16.48;51.85
71304;DHT22;59091;47.446;19.148;2023-05-28T03:37:24;16.27;51.88
71304;DHT22;59091;47.446;19.148;2023-05-28T03:39:52;16.25;51.86
71304;DHT22;59091;47.446;19.148;2023-05-28T03:42:18;16.34;51.77
71304;DHT22;59091;47.446;19.148;2023-05-28T03:44:43;16.35;51.67
71304;DHT22;59091;47.446;19.148;2023-05-28T03:47:09;16.44;51.87
71304;DHT22;59091;47.446;19.148;2023-05-28T03:49:34;16.48;52.45
71304;DHT22;59091;47.446;19.148;2023-05-28T03:52:00;16.31;51.78
71304;DHT22;59091;47.446;19.148;2023-05-28T03:54:25;16.28;52.07
71304;DHT22;59091;47.446;19.148;2023-05-28T03:56:50;16.38;52.15
71304;DHT22;59091;47.446;19.148;2023-05-28T03:59:16;16.53;52.63
71304;DHT22;59091;47.446;19.148;2023-05-28T04:01:41;16.53;51.90
71304;DHT22;59091;47.446;19.148;2023-05-28T04:04:06;16.48;51.76
71304;DHT22;59091;47.446;19.148;2023-05-28T04:06:32;16.69;51.65
71304;DHT22;59091;47.446;19.148;2023-05-28T04:08:58;16.74;51.57
71304;DHT22;59091;47.446;19.148;2023-05-28T04:11:23;16.82;51.26
71304;DHT22;59091;47.446;19.148;2023-05-28T04:13:53;16.89;51.50
71304;DHT22;59091;47.446;19.148;2023-05-28T04:16:20;16.94;50.90
71304;DHT22;59091;47.446;19.148;2023-05-28T04:18:51;16.88;50.75
71304;DHT22;59091;47.446;19.148;2023-05-28T04:21:16;16.98;50.87
71304;DHT22;59091;47.446;19.148;2023-05-28T04:23:42;17.20;51.59
71304;DHT22;59091;47.446;19.148;2023-05-28T04:26:07;17.09;50.65
71304;DHT22;59091;47.446;19.148;2023-05-28T04:28:33;17.01;50.63
71304;DHT22;59091;47.446;19.148;2023-05-28T04:30:59;17.32;51.62
71304;DHT22;59091;47.446;19.148;2023-05-28T04:33:27;17.36;50.23
71304;DHT22;59091;47.446;19.148;2023-05-28T04:35:55;17.25;50.44
71304;DHT22;59091;47.446;19.148;2023-05-28T04:38:20;17.27;50.33
71304;DHT22;59091;47.446;19.148;2023-05-28T04:40:46;17.33;50.48
71304;DHT22;59091;47.446;19.148;2023-05-28T04:43:11;17.50;50.30
71304;DHT22;59091;47.446;19.148;2023-05-28T04:45:37;17.56;50.05
71304;DHT22;59091;47.446;19.148;2023-05-28T04:48:02;17.59;49.81
71304;DHT22;59091;47.446;19.148;2023-05-28T04:50:29;17.60;50.14
71304;DHT22;59091;47.446;19.148;2023-05-28T04:52:55;17.70;49.89
71304;DHT22;59091;47.446;19.148;2023-05-28T04:55:21;17.84;48.70
71304;DHT22;59091;47.446;19.148;2023-05-28T04:57:47;17.88;48.78
71304;DHT22;59091;47.446;19.148;2023-05-28T05:00:13;17.98;48.69
71304;DHT22;59091;47.446;19.148;2023-05-28T05:02:39;17.96;48.58
71304;DHT22;59091;47.446;19.148;2023-05-28T05:05:07;17.97;49.02
71304;DHT22;59091;47.446;19.148;2023-05-28T05:07:37;17.86;48.81
71304;DHT22;59091;47.446;19.148;2023-05-28T05:10:12;18.15;48.56
71304;DHT22;59091;47.446;19.148;2023-05-28T05:12:37;18.25;48.39
71304;DHT22;59091;47.446;19.148;2023-05-28T05:15:03;18.48;48.92
71304;DHT22;59091;47.446;19.148;2023-05-28T05:17:31;18.73;48.29
71304;DHT22;59091;47.446;19.148;2023-05-28T05:19:57;18.70;47.28
71304;DHT22;59091;47.446;19.148;2023-05-28T05:22:23;18.86;48.02
71304;DHT22;59091;47.446;19.148;2023-05-28T05:24:48;19.03;47.03
71304;DHT22;59091;47.446;19.148;2023-05-28T05:27:14;19.16;48.71
71304;DHT22;59091;47.446;19.148;2023-05-28T05:29:39;19.26;47.32
71304;DHT22;59091;47.446;19.148;2023-05-28T05:32:05;19.40;47.29
71304;DHT22;59091;47.446;19.148;2023-05-28T05:34:31;19.40;46.89
71304;DHT22;59091;47.446;19.148;2023-05-28T05:36:57;19.40;46.28
71304;DHT22;59091;47.446;19.148;2023-05-28T05:39:24;19.74;45.77
71304;DHT22;59091;47.446;19.148;2023-05-28T05:41:50;19.88;44.57
71304;DHT22;59091;47.446;19.148;2023-05-28T05:44:15;20.18;45.67
71304;DHT22;59091;47.446;19.148;2023-05-28T05:46:40;20.49;44.70
71304;DHT22;59091;47.446;19.148;2023-05-28T05:49:06;20.90;44.48
71304;DHT22;59091;47.446;19.148;2023-05-28T05:51:31;20.80;43.94
71304;DHT22;59091;47.446;19.148;2023-05-28T05:53:57;20.53;44.10
71304;DHT22;59091;47.446;19.148;2023-05-28T05:56:23;20.63;43.70
71304;DHT22;59091;47.446;19.148;2023-05-28T05:58:48;20.80;45.17
71304;DHT22;59091;47.446;19.148;2023-05-28T06:01:17;20.81;44.22
71304;DHT22;59091;47.446;19.148;2023-05-28T06:03:43;21.21;43.88
71304;DHT22;59091;47.446;19.148;2023-05-28T06:06:09;21.22;43.88
71304;DHT22;59091;47.446;19.148;2023-05-28T06:08:35;21.42;43.13
71304;DHT22;59091;47.446;19.148;2023-05-28T06:11:00;21.43;43.16
71304;DHT22;59091;47.446;19.148;2023-05-28T06:13:26;21.85;42.69
71304;DHT22;59091;47.446;19.148;2023-05-28T06:15:52;22.07;42.31
71304;DHT22;59091;47.446;19.148;2023-05-28T06:18:17;22.11;42.53
71304;DHT22;59091;47.446;19.148;2023-05-28T06:20:42;22.21;41.87
71304;DHT22;59091;47.446;19.148;2023-05-28T06:23:08;21.94;41.78
71304;DHT22;59091;47.446;19.148;2023-05-28T06:25:33;21.58;42.50
71304;DHT22;59091;47.446;19.148;2023-05-28T06:28:03;21.79;42.40
71304;DHT22;59091;47.446;19.148;2023-05-28T06:30:29;21.88;42.32
71304;DHT22;59091;47.446;19.148;2023-05-28T06:32:55;21.96;42.00
71304;DHT22;59091;47.446;19.148;2023-05-28T06:35:20;21.90;42.14
71304;DHT22;59091;47.446;19.148;2023-05-28T06:37:46;21.85;43.09
71304;DHT22;59091;47.446;19.148;2023-05-28T06:40:12;22.02;42.64
71304;DHT22;59091;47.446;19.148;2023-05-28T06:42:37;22.40;41.33
71304;DHT22;59091;47.446;19.148;2023-05-28T06:45:06;22.64;41.00
71304;DHT22;59091;47.446;19.148;2023-05-28T06:47:33;22.69;40.93
71304;DHT22;59091;47.446;19.148;2023-05-28T06:49:58;23.01;41.15
71304;DHT22;59091;47.446;19.148;2023-05-28T06:52:24;23.15;40.39
71304;DHT22;59091;47.446;19.148;2023-05-28T06:54:49;23.26;39.53
71304;DHT22;59091;47.446;19.148;2023-05-28T06:57:15;23.46;38.84
71304;DHT22;59091;47.446;19.148;2023-05-28T06:59:41;23.56;38.84
71304;DHT22;59091;47.446;19.148;2023-05-28T07:02:07;23.59;39.58
71304;DHT22;59091;47.446;19.148;2023-05-28T07:04:32;23.94;39.27
71304;DHT22;59091;47.446;19.148;2023-05-28T07:06:58;23.97;38.16
71304;DHT22;59091;47.446;19.148;2023-05-28T07:09:23;23.88;38.66
71304;DHT22;59091;47.446;19.148;2023-05-28T07:11:49;24.08;39.16
71304;DHT22;59091;47.446;19.148;2023-05-28T07:14:14;24.08;38.65
71304;DHT22;59091;47.446;19.148;2023-05-28T07:16:40;24.04;39.05
71304;DHT22;59091;47.446;19.148;2023-05-28T07:19:06;24.21;39.42
71304;DHT22;59091;47.446;19.148;2023-05-28T07:21:31;24.28;38.49
71304;DHT22;59091;47.446;19.148;2023-05-28T07:23:58;24.82;37.75
71304;DHT22;59091;47.446;19.148;2023-05-28T07:26:23;25.07;36.90
71304;DHT22;59091;47.446;19.148;2023-05-28T07:28:49;25.12;37.62
71304;DHT22;59091;47.446;19.148;2023-05-28T07:31:14;25.36;40.00
71304;DHT22;59091;47.446;19.148;2023-05-28T07:33:39;25.65;37.05
71304;DHT22;59091;47.446;19.148;2023-05-28T07:36:05;25.67;36.92
71304;DHT22;59091;47.446;19.148;2023-05-28T07:38:31;25.37;36.94
71304;DHT22;59091;47.446;19.148;2023-05-28T07:40:56;25.75;36.81
71304;DHT22;59091;47.446;19.148;2023-05-28T07:43:22;26.16;36.42
71304;DHT22;59091;47.446;19.148;2023-05-28T07:45:47;26.49;35.83
71304;DHT22;59091;47.446;19.148;2023-05-28T07:48:13;26.11;35.80
71304;DHT22;59091;47.446;19.148;2023-05-28T07:50:38;25.77;36.81
71304;DHT22;59091;47.446;19.148;2023-05-28T07:53:04;26.31;35.77
71304;DHT22;59091;47.446;19.148;2023-05-28T07:55:30;26.53;35.96
71304;DHT22;59091;47.446;19.148;2023-05-28T07:57:56;26.28;36.05
71304;DHT22;59091;47.446;19.148;2023-05-28T08:00:24;26.35;36.28
71304;DHT22;59091;47.446;19.148;2023-05-28T08:02:50;26.76;35.50
71304;DHT22;59091;47.446;19.148;2023-05-28T08:05:16;27.21;34.80
71304;DHT22;59091;47.446;19.148;2023-05-28T08:07:41;27.90;33.73
71304;DHT22;59091;47.446;19.148;2023-05-28T08:10:07;28.02;33.72
71304;DHT22;59091;47.446;19.148;2023-05-28T08:12:33;28.02;33.70
71304;DHT22;59091;47.446;19.148;2023-05-28T08:14:59;28.14;33.19
71304;DHT22;59091;47.446;19.148;2023-05-28T08:17:24;28.41;33.99
71304;DHT22;59091;47.446;19.148;2023-05-28T08:19:49;28.54;32.91
71304;DHT22;59091;47.446;19.148;2023-05-28T08:22:16;27.96;34.57
71304;DHT22;59091;47.446;19.148;2023-05-28T08:24:41;28.32;33.03
71304;DHT22;59091;47.446;19.148;2023-05-28T08:27:06;28.13;33.75
71304;DHT22;59091;47.446;19.148;2023-05-28T08:29:32;27.97;33.72
71304;DHT22;59091;47.446;19.148;2023-05-28T08:31:58;28.02;34.44
71304;DHT22;59091;47.446;19.148;2023-05-28T08:34:24;28.41;32.84
71304;DHT22;59091;47.446;19.148;2023-05-28T08:36:50;28.56;32.73
71304;DHT22;59091;47.446;19.148;2023-05-28T08:39:15;28.56;32.78
71304;DHT22;59091;47.446;19.148;2023-05-28T08:41:43;28.09;33.98
71304;DHT22;59091;47.446;19.148;2023-05-28T08:44:08;28.64;32.79
71304;DHT22;59091;47.446;19.148;2023-05-28T08:46:35;28.00;33.56
71304;DHT22;59091;47.446;19.148;2023-05-28T08:49:02;27.92;33.78
71304;DHT22;59091;47.446;19.148;2023-05-28T08:51:34;28.20;32.87
71304;DHT22;59091;47.446;19.148;2023-05-28T08:54:02;28.21;34.03
71304;DHT22;59091;47.446;19.148;2023-05-28T08:56:28;28.86;32.90
71304;DHT22;59091;47.446;19.148;2023-05-28T08:58:54;28.68;32.24
71304;DHT22;59091;47.446;19.148;2023-05-28T09:01:20;28.84;32.84
71304;DHT22;59091;47.446;19.148;2023-05-28T09:03:45;28.57;33.18
71304;DHT22;59091;47.446;19.148;2023-05-28T09:06:11;28.75;32.74
71304;DHT22;59091;47.446;19.148;2023-05-28T09:08:37;29.04;32.66
71304;DHT22;59091;47.446;19.148;2023-05-28T09:11:13;28.91;31.47
71304;DHT22;59091;47.446;19.148;2023-05-28T09:13:46;28.43;33.54
71304;DHT22;59091;47.446;19.148;2023-05-28T09:16:19;27.96;33.88
71304;DHT22;59091;47.446;19.148;2023-05-28T09:18:52;28.06;34.16
71304;DHT22;59091;47.446;19.148;2023-05-28T09:21:27;27.23;34.66
71304;DHT22;59091;47.446;19.148;2023-05-28T09:23:52;27.49;34.55
71304;DHT22;59091;47.446;19.148;2023-05-28T09:26:18;27.39;35.11
71304;DHT22;59091;47.446;19.148;2023-05-28T09:28:49;27.12;36.54
71304;DHT22;59091;47.446;19.148;2023-05-28T09:31:15;27.49;34.90
71304;DHT22;59091;47.446;19.148;2023-05-28T09:33:47;27.25;34.71
71304;DHT22;59091;47.446;19.148;2023-05-28T09:36:16;27.06;35.62
71304;DHT22;59091;47.446;19.148;2023-05-28T09:38:43;26.90;35.26
71304;DHT22;59091;47.446;19.148;2023-05-28T09:41:22;26.84;36.38
71304;DHT22;59091;47.446;19.148;2023-05-28T09:44:08;26.39;36.68
71304;DHT22;59091;47.446;19.148;2023-05-28T09:46:36;26.43;36.69
71304;DHT22;59091;47.446;19.148;2023-05-28T09:49:03;26.53;35.40
71304;DHT22;59091;47.446;19.148;2023-05-28T09:51:30;26.42;35.59
71304;DHT22;59091;47.446;19.148;2023-05-28T09:53:57;25.84;36.78
71304;DHT22;59091;47.446;19.148;2023-05-28T09:56:28;26.21;37.58
71304;DHT22;59091;47.446;19.148;2023-05-28T09:59:00;26.35;36.88
71304;DHT22;59091;47.446;19.148;2023-05-28T10:01:31;26.11;35.51
71304;DHT22;59091;47.446;19.148;2023-05-28T10:04:17;26.01;35.26
71304;DHT22;59091;47.446;19.148;2023-05-28T10:06:44;25.95;35.32
71304;DHT22;59091;47.446;19.148;2023-05-28T10:09:15;26.15;35.00
71304;DHT22;59091;47.446;19.148;2023-05-28T10:11:57;26.02;34.79
71304;DHT22;59091;47.446;19.148;2023-05-28T10:14:24;26.25;35.10
71304;DHT22;59091;47.446;19.148;2023-05-28T10:16:50;26.14;37.42
71304;DHT22;59091;47.446;19.148;2023-05-28T10:19:16;26.43;36.09
71304;DHT22;59091;47.446;19.148;2023-05-28T10:21:42;26.64;35.80
71304;DHT22;59091;47.446;19.148;2023-05-28T10:24:08;26.56;34.64
71304;DHT22;59091;47.446;19.148;2023-05-28T10:26:34;26.42;34.60
71304;DHT22;59091;47.446;19.148;2023-05-28T10:28:59;26.57;34.73
71304;DHT22;59091;47.446;19.148;2023-05-28T10:31:25;26.52;35.35
71304;DHT22;59091;47.446;19.148;2023-05-28T10:33:50;26.37;34.73
71304;DHT22;59091;47.446;19.148;2023-05-28T10:36:17;26.43;35.35
71304;DHT22;59091;47.446;19.148;2023-05-28T10:41:10;26.40;35.63
71304;DHT22;59091;47.446;19.148;2023-05-28T10:51:42;26.63;35.98
71304;DHT22;59091;47.446;19.148;2023-05-28T10:57:19;26.90;35.61
71304;DHT22;59091;47.446;19.148;2023-05-28T10:59:58;27.03;34.86
71304;DHT22;59091;47.446;19.148;2023-05-28T11:02:28;26.87;35.03
71304;DHT22;59091;47.446;19.148;2023-05-28T11:04:58;26.57;34.60
71304;DHT22;59091;47.446;19.148;2023-05-28T11:07:31;26.52;35.01
71304;DHT22;59091;47.446;19.148;2023-05-28T11:09:58;26.57;36.17
71304;DHT22;59091;47.446;19.148;2023-05-28T11:12:27;26.73;35.07
71304;DHT22;59091;47.446;19.148;2023-05-28T11:14:53;26.63;35.59
71304;DHT22;59091;47.446;19.148;2023-05-28T11:17:19;26.59;35.40
71304;DHT22;59091;47.446;19.148;2023-05-28T11:19:49;26.57;36.33
71304;DHT22;59091;47.446;19.148;2023-05-28T11:22:16;26.46;35.11
71304;DHT22;59091;47.446;19.148;2023-05-28T11:25:07;26.35;34.54
71304;DHT22;59091;47.446;19.148;2023-05-28T11:27:34;26.57;35.56
71304;DHT22;59091;47.446;19.148;2023-05-28T11:30:10;26.61;35.71
71304;DHT22;59091;47.446;19.148;2023-05-28T11:32:40;26.83;38.35
71304;DHT22;59091;47.446;19.148;2023-05-28T11:35:06;27.08;35.51
71304;DHT22;59091;47.446;19.148;2023-05-28T11:37:35;27.00;34.61
71304;DHT22;59091;47.446;19.148;2023-05-28T11:40:02;26.94;34.37
71304;DHT22;59091;47.446;19.148;2023-05-28T11:42:31;26.80;34.95
71304;DHT22;59091;47.446;19.148;2023-05-28T11:44:56;26.79;35.62
71304;DHT22;59091;47.446;19.148;2023-05-28T11:47:23;26.93;35.58
71304;DHT22;59091;47.446;19.148;2023-05-28T11:49:49;26.80;34.28
71304;DHT22;59091;47.446;19.148;2023-05-28T11:52:19;26.76;34.49
71304;DHT22;59091;47.446;19.148;2023-05-28T11:54:48;26.52;35.51
71304;DHT22;59091;47.446;19.148;2023-05-28T11:57:50;26.60;35.07
71304;DHT22;59091;47.446;19.148;2023-05-28T12:00:12;26.43;34.57
71304;DHT22;59091;47.446;19.148;2023-05-28T12:03:01;26.55;34.24
71304;DHT22;59091;47.446;19.148;2023-05-28T12:05:27;26.67;34.29
71304;DHT22;59091;47.446;19.148;2023-05-28T12:07:54;26.84;37.43
71304;DHT22;59091;47.446;19.148;2023-05-28T12:10:26;26.79;34.68
71304;DHT22;59091;47.446;19.148;2023-05-28T12:12:55;26.67;33.99
71304;DHT22;59091;47.446;19.148;2023-05-28T12:15:22;26.96;33.81
71304;DHT22;59091;47.446;19.148;2023-05-28T12:17:53;26.84;33.72
71304;DHT22;59091;47.446;19.148;2023-05-28T12:22:45;26.82;33.14
71304;DHT22;59091;47.446;19.148;2023-05-28T12:25:11;26.79;33.56
71304;DHT22;59091;47.446;19.148;2023-05-28T12:27:37;26.90;32.80
71304;DHT22;59091;47.446;19.148;2023-05-28T12:30:03;26.87;31.17
71304;DHT22;59091;47.446;19.148;2023-05-28T12:32:28;27.08;30.94
71304;DHT22;59091;47.446;19.148;2023-05-28T12:34:54;27.35;31.68
71304;DHT22;59091;47.446;19.148;2023-05-28T12:37:24;27.55;31.17
71304;DHT22;59091;47.446;19.148;2023-05-28T12:39:51;27.42;30.72
71304;DHT22;59091;47.446;19.148;2023-05-28T12:42:17;27.35;29.83
71304;DHT22;59091;47.446;19.148;2023-05-28T12:44:42;27.17;29.92
71304;DHT22;59091;47.446;19.148;2023-05-28T12:47:09;27.23;31.69
71304;DHT22;59091;47.446;19.148;2023-05-28T12:49:34;27.15;30.49
71304;DHT22;59091;47.446;19.148;2023-05-28T12:52:00;27.12;31.73
71304;DHT22;59091;47.446;19.148;2023-05-28T12:54:25;27.47;31.25
71304;DHT22;59091;47.446;19.148;2023-05-28T12:56:51;27.58;30.64
71304;DHT22;59091;47.446;19.148;2023-05-28T12:59:23;27.56;29.45
71304;DHT22;59091;47.446;19.148;2023-05-28T13:01:49;27.37;31.10
71304;DHT22;59091;47.446;19.148;2023-05-28T13:04:15;27.35;31.14
71304;DHT22;59091;47.446;19.148;2023-05-28T13:06:41;27.25;32.36
71304;DHT22;59091;47.446;19.148;2023-05-28T13:09:07;27.39;30.87
71304;DHT22;59091;47.446;19.148;2023-05-28T13:11:38;27.56;30.54
71304;DHT22;59091;47.446;19.148;2023-05-28T13:14:04;27.56;31.53
71304;DHT22;59091;47.446;19.148;2023-05-28T13:16:29;27.82;31.53
71304;DHT22;59091;47.446;19.148;2023-05-28T13:18:55;27.93;31.55
71304;DHT22;59091;47.446;19.148;2023-05-28T13:21:21;27.96;31.33
71304;DHT22;59091;47.446;19.148;2023-05-28T13:23:47;28.06;31.32
71304;DHT22;59091;47.446;19.148;2023-05-28T13:26:13;27.85;30.15
71304;DHT22;59091;47.446;19.148;2023-05-28T13:28:38;27.85;30.42
71304;DHT22;59091;47.446;19.148;2023-05-28T13:31:04;27.73;29.09
71304;DHT22;59091;47.446;19.148;2023-05-28T13:33:29;27.81;30.07
71304;DHT22;59091;47.446;19.148;2023-05-28T13:35:55;27.79;29.64
71304;DHT22;59091;47.446;19.148;2023-05-28T13:38:20;27.75;29.43
71304;DHT22;59091;47.446;19.148;2023-05-28T13:40:46;27.70;28.47
71304;DHT22;59091;47.446;19.148;2023-05-28T13:43:12;27.96;28.81
71304;DHT22;59091;47.446;19.148;2023-05-28T13:45:39;27.96;28.62
71304;DHT22;59091;47.446;19.148;2023-05-28T13:48:06;28.07;28.25
71304;DHT22;59091;47.446;19.148;2023-05-28T13:50:32;28.21;28.98
71304;DHT22;59091;47.446;19.148;2023-05-28T13:52:58;28.33;29.87
71304;DHT22;59091;47.446;19.148;2023-05-28T13:55:24;28.00;28.36
71304;DHT22;59091;47.446;19.148;2023-05-28T13:57:53;27.99;28.39
71304;DHT22;59091;47.446;19.148;2023-05-28T14:00:19;27.96;28.50
71304;DHT22;59091;47.446;19.148;2023-05-28T14:02:46;28.07;26.97
71304;DHT22;59091;47.446;19.148;2023-05-28T14:05:12;28.33;28.41
71304;DHT22;59091;47.446;19.148;2023-05-28T14:07:37;28.10;27.80
71304;DHT22;59091;47.446;19.148;2023-05-28T14:10:03;27.90;28.51
71304;DHT22;59091;47.446;19.148;2023-05-28T14:12:29;27.95;27.51
71304;DHT22;59091;47.446;19.148;2023-05-28T14:14:54;27.82;26.46
71304;DHT22;59091;47.446;19.148;2023-05-28T14:17:19;28.10;26.69
71304;DHT22;59091;47.446;19.148;2023-05-28T14:19:45;28.27;27.19
71304;DHT22;59091;47.446;19.148;2023-05-28T14:22:10;27.70;26.85
71304;DHT22;59091;47.446;19.148;2023-05-28T14:24:35;27.52;27.11
71304;DHT22;59091;47.446;19.148;2023-05-28T14:27:03;27.75;26.79
71304;DHT22;59091;47.446;19.148;2023-05-28T14:29:29;28.09;26.17
71304;DHT22;59091;47.446;19.148;2023-05-28T14:31:54;27.88;26.05
71304;DHT22;59091;47.446;19.148;2023-05-28T14:34:20;28.00;25.86
71304;DHT22;59091;47.446;19.148;2023-05-28T14:36:45;27.78;25.51
71304;DHT22;59091;47.446;19.148;2023-05-28T14:39:10;27.96;26.38
71304;DHT22;59091;47.446;19.148;2023-05-28T14:41:36;28.35;25.81
71304;DHT22;59091;47.446;19.148;2023-05-28T14:44:01;28.32;25.37
71304;DHT22;59091;47.446;19.148;2023-05-28T14:46:27;28.54;25.40
71304;DHT22;59091;47.446;19.148;2023-05-28T14:48:53;28.07;25.25
71304;DHT22;59091;47.446;19.148;2023-05-28T14:51:18;27.81;26.05
71304;DHT22;59091;47.446;19.148;2023-05-28T14:53:43;28.07;25.92
71304;DHT22;59091;47.446;19.148;2023-05-28T14:56:09;28.35;25.82
71304;DHT22;59091;47.446;19.148;2023-05-28T14:58:34;28.64;25.53
71304;DHT22;59091;47.446;19.148;2023-05-28T15:01:00;28.53;25.25
71304;DHT22;59091;47.446;19.148;2023-05-28T15:03:28;28.35;25.30
71304;DHT22;59091;47.446;19.148;2023-05-28T15:05:54;28.26;25.70
71304;DHT22;59091;47.446;19.148;2023-05-28T15:08:20;28.02;26.10
71304;DHT22;59091;47.446;19.148;2023-05-28T15:10:47;28.29;26.04
71304;DHT22;59091;47.446;19.148;2023-05-28T15:13:12;28.44;25.29
71304;DHT22;59091;47.446;19.148;2023-05-28T15:15:38;28.35;24.89
71304;DHT22;59091;47.446;19.148;2023-05-28T15:18:04;28.37;24.89
71304;DHT22;59091;47.446;19.148;2023-05-28T15:20:29;28.24;25.33
71304;DHT22;59091;47.446;19.148;2023-05-28T15:22:54;28.40;25.21
71304;DHT22;59091;47.446;19.148;2023-05-28T15:25:20;28.27;25.16
71304;DHT22;59091;47.446;19.148;2023-05-28T15:27:48;28.29;25.07